createdAt,value
2017-07-18T00:00:21.510Z,0
2017-07-18T00:01:02.096Z,0
2017-07-18T00:01:42.681Z,0
2017-07-18T00:02:23.309Z,0
2017-07-18T00:03:03.870Z,0
2017-07-18T00:03:44.433Z,0
2017-07-18T00:04:25.006Z,0
2017-07-18T00:05:05.607Z,0
2017-07-18T00:05:46.190Z,0
2017-07-18T00:06:26.874Z,0
2017-07-18T00:07:07.457Z,0
2017-07-18T00:07:48.055Z,0
2017-07-18T00:08:28.625Z,0
2017-07-18T00:09:09.219Z,0
2017-07-18T00:09:49.803Z,0
2017-07-18T00:10:30.363Z,0
2017-07-18T00:11:10.953Z,0
2017-07-18T00:11:51.540Z,0
2017-07-18T00:12:32.144Z,0
2017-07-18T00:13:12.758Z,0
2017-07-18T00:13:53.323Z,0
2017-07-18T00:14:33.898Z,0
2017-07-18T00:15:14.497Z,0
2017-07-18T00:15:55.094Z,0
2017-07-18T00:16:35.674Z,0
2017-07-18T00:17:19.994Z,0
2017-07-18T00:18:00.575Z,0
2017-07-18T00:18:41.155Z,0
2017-07-18T00:19:21.725Z,0
2017-07-18T00:20:02.303Z,0
2017-07-18T00:20:42.989Z,0
2017-07-18T00:21:23.552Z,0
2017-07-18T00:22:04.126Z,0
2017-07-18T00:22:44.723Z,0
2017-07-18T00:23:25.315Z,0
2017-07-18T00:24:05.880Z,0
2017-07-18T00:24:46.459Z,0
2017-07-18T00:25:27.007Z,0
2017-07-18T00:26:07.583Z,0
2017-07-18T00:26:48.193Z,0
2017-07-18T00:27:28.783Z,0
2017-07-18T00:28:09.355Z,0
2017-07-18T00:28:49.924Z,0
2017-07-18T00:29:30.477Z,0
2017-07-18T00:30:11.042Z,0
2017-07-18T00:30:51.600Z,0
2017-07-18T00:31:32.189Z,0
2017-07-18T00:32:12.783Z,0
2017-07-18T00:32:53.379Z,0
2017-07-18T00:33:33.943Z,0
2017-07-18T00:34:14.538Z,0
2017-07-18T00:34:55.102Z,0
2017-07-18T00:35:35.717Z,0
2017-07-18T00:36:16.290Z,0
2017-07-18T00:36:56.876Z,0
2017-07-18T00:37:37.454Z,0
2017-07-18T00:38:18.046Z,0
2017-07-18T00:38:58.614Z,0
2017-07-18T00:39:39.190Z,0
2017-07-18T00:40:19.812Z,0
2017-07-18T00:41:00.402Z,0
2017-07-18T00:41:41.018Z,0
2017-07-18T00:42:21.588Z,0
2017-07-18T00:43:02.180Z,0
2017-07-18T00:43:42.757Z,0
2017-07-18T00:44:23.333Z,0
2017-07-18T00:45:03.908Z,0
2017-07-18T00:45:44.524Z,0
2017-07-18T00:46:25.111Z,0
2017-07-18T00:47:05.711Z,0
2017-07-18T00:47:46.308Z,0
2017-07-18T00:48:26.907Z,0
2017-07-18T00:49:07.484Z,0
2017-07-18T00:49:48.073Z,0
2017-07-18T00:50:28.687Z,0
2017-07-18T00:51:09.268Z,0
2017-07-18T00:51:49.832Z,0
2017-07-18T00:52:30.413Z,0
2017-07-18T00:53:10.966Z,0
2017-07-18T00:53:51.528Z,0
2017-07-18T00:54:32.111Z,0
2017-07-18T00:55:12.682Z,0
2017-07-18T00:55:53.275Z,0
2017-07-18T00:56:33.864Z,0
2017-07-18T00:57:14.443Z,0
2017-07-18T00:57:55.024Z,0
2017-07-18T00:58:35.595Z,0
2017-07-18T00:59:16.162Z,0
2017-07-18T00:59:56.740Z,0
2017-07-18T01:00:37.336Z,0
2017-07-18T01:01:17.910Z,0
2017-07-18T01:01:58.494Z,0
2017-07-18T01:02:39.089Z,0
2017-07-18T01:03:19.663Z,0
2017-07-18T01:04:00.248Z,0
2017-07-18T01:04:40.837Z,0
2017-07-18T01:05:21.415Z,0
2017-07-18T01:06:02.001Z,0
2017-07-18T01:06:42.578Z,0
2017-07-18T01:07:23.167Z,0
2017-07-18T01:08:03.747Z,0
2017-07-18T01:08:44.363Z,0
2017-07-18T01:09:24.920Z,0
2017-07-18T01:10:05.564Z,0
2017-07-18T01:10:46.186Z,0
2017-07-18T01:11:26.777Z,0
2017-07-18T01:12:07.353Z,0
2017-07-18T01:12:47.914Z,0
2017-07-18T01:13:28.493Z,0
2017-07-18T01:14:09.088Z,0
2017-07-18T01:14:49.662Z,0
2017-07-18T01:15:30.252Z,0
2017-07-18T01:16:10.823Z,0
2017-07-18T01:16:51.413Z,0
2017-07-18T01:17:32.063Z,0
2017-07-18T01:18:12.656Z,0
2017-07-18T01:18:53.242Z,0
2017-07-18T01:19:33.819Z,0
2017-07-18T01:20:14.402Z,0
2017-07-18T01:20:54.980Z,0
2017-07-18T01:21:35.546Z,0
2017-07-18T01:22:16.142Z,0
2017-07-18T01:22:56.734Z,0
2017-07-18T01:23:37.319Z,0
2017-07-18T01:24:17.893Z,0
2017-07-18T01:24:58.510Z,0
2017-07-18T01:25:39.089Z,0
2017-07-18T01:26:19.670Z,0
2017-07-18T01:27:00.262Z,0
2017-07-18T01:27:40.829Z,0
2017-07-18T01:28:21.437Z,0
2017-07-18T01:29:02.006Z,0
2017-07-18T01:29:42.583Z,0
2017-07-18T01:30:23.197Z,0
2017-07-18T01:31:03.766Z,0
2017-07-18T01:31:44.366Z,0
2017-07-18T01:32:24.927Z,0
2017-07-18T01:33:05.496Z,0
2017-07-18T01:33:46.062Z,0
2017-07-18T01:34:26.631Z,0
2017-07-18T01:35:07.213Z,0
2017-07-18T01:35:47.798Z,0
2017-07-18T01:36:28.366Z,0
2017-07-18T01:37:08.947Z,0
2017-07-18T01:37:49.514Z,0
2017-07-18T01:38:30.073Z,0
2017-07-18T01:39:10.657Z,0
2017-07-18T01:39:51.248Z,0
2017-07-18T01:40:31.830Z,0
2017-07-18T01:41:12.421Z,0
2017-07-18T01:41:53.010Z,0
2017-07-18T01:42:33.597Z,0
2017-07-18T01:43:14.176Z,0
2017-07-18T01:43:54.740Z,0
2017-07-18T01:44:35.333Z,0
2017-07-18T01:45:15.912Z,0
2017-07-18T01:45:56.497Z,0
2017-07-18T01:46:37.069Z,0
2017-07-18T01:47:17.671Z,0
2017-07-18T01:47:58.233Z,0
2017-07-18T01:48:38.795Z,0
2017-07-18T01:49:19.379Z,0
2017-07-18T01:49:59.972Z,0
2017-07-18T01:50:40.530Z,0
2017-07-18T01:51:21.104Z,0
2017-07-18T01:52:01.711Z,0
2017-07-18T01:52:42.288Z,0
2017-07-18T01:53:22.861Z,0
2017-07-18T01:54:03.412Z,0
2017-07-18T01:54:43.980Z,0
2017-07-18T01:55:24.557Z,0
2017-07-18T01:56:05.126Z,0
2017-07-18T01:56:45.713Z,0
2017-07-18T01:57:26.275Z,0
2017-07-18T01:58:06.865Z,0
2017-07-18T01:58:47.436Z,0
2017-07-18T01:59:28.017Z,0
2017-07-18T02:00:08.616Z,0
2017-07-18T02:00:49.182Z,0
2017-07-18T02:01:29.786Z,0
2017-07-18T02:02:10.385Z,0
2017-07-18T02:02:50.960Z,0
2017-07-18T02:03:31.547Z,0
2017-07-18T02:04:12.122Z,0
2017-07-18T02:04:52.700Z,0
2017-07-18T02:05:33.276Z,0
2017-07-18T02:06:13.860Z,0
2017-07-18T02:06:54.438Z,0
2017-07-18T02:07:35.022Z,0
2017-07-18T02:08:15.608Z,0
2017-07-18T02:08:56.192Z,0
2017-07-18T02:09:36.762Z,0
2017-07-18T02:10:17.406Z,0
2017-07-18T02:10:57.979Z,0
2017-07-18T02:11:38.577Z,0
2017-07-18T02:12:19.186Z,0
2017-07-18T02:12:59.778Z,0
2017-07-18T02:13:40.357Z,0
2017-07-18T02:14:20.947Z,0
2017-07-18T02:15:01.517Z,0
2017-07-18T02:15:42.087Z,0
2017-07-18T02:16:22.668Z,0
2017-07-18T02:17:03.244Z,0
2017-07-18T02:17:43.823Z,0
2017-07-18T02:18:24.448Z,0
2017-07-18T02:19:05.045Z,0
2017-07-18T02:19:45.638Z,0
2017-07-18T02:20:26.217Z,0
2017-07-18T02:21:06.800Z,0
2017-07-18T02:21:47.368Z,0
2017-07-18T02:22:27.959Z,0
2017-07-18T02:23:08.562Z,0
2017-07-18T02:23:49.129Z,0
2017-07-18T02:24:29.700Z,0
2017-07-18T02:25:10.286Z,0
2017-07-18T02:25:50.880Z,0
2017-07-18T02:26:31.538Z,0
2017-07-18T02:27:12.089Z,0
2017-07-18T02:27:52.664Z,0
2017-07-18T02:28:33.226Z,0
2017-07-18T02:29:13.798Z,0
2017-07-18T02:29:54.374Z,0
2017-07-18T02:30:34.995Z,0
2017-07-18T02:31:15.616Z,0
2017-07-18T02:31:56.189Z,0
2017-07-18T02:32:36.769Z,0
2017-07-18T02:33:17.348Z,0
2017-07-18T02:33:57.922Z,0
2017-07-18T02:34:38.490Z,0
2017-07-18T02:35:19.069Z,0
2017-07-18T02:35:59.650Z,0
2017-07-18T02:36:40.219Z,0
2017-07-18T02:37:20.813Z,0
2017-07-18T02:38:01.385Z,0
2017-07-18T02:38:41.952Z,0
2017-07-18T02:39:22.546Z,0
2017-07-18T02:40:03.126Z,0
2017-07-18T02:40:43.689Z,0
2017-07-18T02:41:24.257Z,0
2017-07-18T02:42:04.843Z,0
2017-07-18T02:42:45.434Z,0
2017-07-18T02:43:26.037Z,0
2017-07-18T02:44:06.632Z,0
2017-07-18T02:44:47.237Z,0
2017-07-18T02:45:27.807Z,0
2017-07-18T02:46:08.385Z,0
2017-07-18T02:46:48.968Z,0
2017-07-18T02:47:29.547Z,0
2017-07-18T02:48:10.114Z,0
2017-07-18T02:48:50.692Z,0
2017-07-18T02:49:31.251Z,0
2017-07-18T02:50:11.824Z,0
2017-07-18T02:50:52.397Z,0
2017-07-18T02:51:32.975Z,0
2017-07-18T02:52:13.577Z,0
2017-07-18T02:52:54.173Z,0
2017-07-18T02:53:34.721Z,0
2017-07-18T02:54:15.306Z,0
2017-07-18T02:54:55.897Z,0
2017-07-18T02:55:36.492Z,0
2017-07-18T02:56:17.065Z,0
2017-07-18T02:56:57.631Z,0
2017-07-18T02:57:38.208Z,0
2017-07-18T02:58:18.774Z,0
2017-07-18T02:58:59.354Z,0
2017-07-18T02:59:39.924Z,0
2017-07-18T03:00:20.505Z,0
2017-07-18T03:01:01.124Z,0
2017-07-18T03:01:41.697Z,0
2017-07-18T03:02:22.254Z,0
2017-07-18T03:03:02.829Z,0
2017-07-18T03:03:43.426Z,0
2017-07-18T03:04:23.999Z,0
2017-07-18T03:05:04.590Z,0
2017-07-18T03:05:45.204Z,0
2017-07-18T03:06:25.797Z,0
2017-07-18T03:07:06.387Z,0
2017-07-18T03:07:46.973Z,0
2017-07-18T03:08:27.542Z,0
2017-07-18T03:09:08.140Z,0
2017-07-18T03:09:48.729Z,0
2017-07-18T03:10:29.317Z,0
2017-07-18T03:11:09.897Z,0
2017-07-18T03:11:50.484Z,0
2017-07-18T03:12:31.067Z,0
2017-07-18T03:13:11.659Z,5
2017-07-18T03:13:52.233Z,5
2017-07-18T03:14:32.792Z,5
2017-07-18T03:15:13.398Z,5
2017-07-18T03:15:53.993Z,5
2017-07-18T03:16:34.582Z,5
2017-07-18T03:17:15.163Z,5
2017-07-18T03:17:55.729Z,5
2017-07-18T03:18:36.315Z,5
2017-07-18T03:19:16.890Z,5
2017-07-18T03:19:57.461Z,5
2017-07-18T03:20:38.032Z,5
2017-07-18T03:21:18.656Z,5
2017-07-18T03:21:59.214Z,5
2017-07-18T03:22:39.797Z,5
2017-07-18T03:23:20.378Z,5
2017-07-18T03:24:00.964Z,5
2017-07-18T03:24:41.531Z,5
2017-07-18T03:25:22.164Z,5
2017-07-18T03:26:02.733Z,10
2017-07-18T03:26:43.311Z,10
2017-07-18T03:27:23.892Z,10
2017-07-18T03:28:04.466Z,10
2017-07-18T03:28:45.028Z,10
2017-07-18T03:29:25.601Z,10
2017-07-18T03:30:06.179Z,10
2017-07-18T03:30:46.827Z,10
2017-07-18T03:31:27.387Z,10
2017-07-18T03:32:07.959Z,10
2017-07-18T03:32:48.529Z,10
2017-07-18T03:33:29.121Z,10
2017-07-18T03:34:09.686Z,10
2017-07-18T03:34:50.266Z,10
2017-07-18T03:35:30.840Z,10
2017-07-18T03:36:11.423Z,15
2017-07-18T03:36:52.020Z,15
2017-07-18T03:37:32.576Z,15
2017-07-18T03:38:13.158Z,15
2017-07-18T03:38:53.756Z,15
2017-07-18T03:39:34.354Z,15
2017-07-18T03:40:14.915Z,15
2017-07-18T03:40:55.476Z,15
2017-07-18T03:41:36.055Z,15
2017-07-18T03:42:16.669Z,15
2017-07-18T03:42:57.268Z,15
2017-07-18T03:43:37.871Z,15
2017-07-18T03:44:18.445Z,15
2017-07-18T03:44:59.009Z,15
2017-07-18T03:45:39.598Z,20
2017-07-18T03:46:20.165Z,20
2017-07-18T03:47:00.746Z,20
2017-07-18T03:47:41.316Z,20
2017-07-18T03:48:21.935Z,20
2017-07-18T03:49:02.506Z,20
2017-07-18T03:49:43.090Z,20
2017-07-18T03:50:23.669Z,20
2017-07-18T03:51:04.238Z,20
2017-07-18T03:51:44.826Z,20
2017-07-18T03:52:25.418Z,20
2017-07-18T03:53:06.016Z,20
2017-07-18T03:53:46.596Z,25
2017-07-18T03:54:27.177Z,25
2017-07-18T03:55:07.781Z,25
2017-07-18T03:55:48.558Z,25
2017-07-18T03:56:29.131Z,25
2017-07-18T03:57:09.703Z,25
2017-07-18T03:57:50.292Z,25
2017-07-18T03:58:30.896Z,25
2017-07-18T03:59:11.624Z,25
2017-07-18T03:59:52.215Z,25
2017-07-18T04:00:32.799Z,25
2017-07-18T04:01:13.383Z,25
2017-07-18T04:01:53.957Z,30
2017-07-18T04:02:34.555Z,30
2017-07-18T04:03:15.104Z,30
2017-07-18T04:03:55.694Z,30
2017-07-18T04:04:36.274Z,30
2017-07-18T04:05:16.844Z,30
2017-07-18T04:05:57.417Z,30
2017-07-18T04:06:38.037Z,30
2017-07-18T04:07:18.607Z,30
2017-07-18T04:07:59.172Z,30
2017-07-18T04:08:39.774Z,30
2017-07-18T04:09:20.367Z,35
2017-07-18T04:10:00.944Z,35
2017-07-18T04:10:41.531Z,35
2017-07-18T04:11:22.105Z,35
2017-07-18T04:12:02.727Z,35
2017-07-18T04:12:43.296Z,35
2017-07-18T04:13:23.873Z,35
2017-07-18T04:14:04.480Z,35
2017-07-18T04:14:45.049Z,35
2017-07-18T04:15:25.621Z,35
2017-07-18T04:16:06.201Z,35
2017-07-18T04:16:46.791Z,35
2017-07-18T04:17:27.562Z,40
2017-07-18T04:18:08.152Z,40
2017-07-18T04:18:48.750Z,40
2017-07-18T04:19:29.349Z,40
2017-07-18T04:20:09.936Z,40
2017-07-18T04:20:50.524Z,40
2017-07-18T04:21:31.107Z,40
2017-07-18T04:22:11.734Z,40
2017-07-18T04:22:52.359Z,40
2017-07-18T04:23:32.936Z,40
2017-07-18T04:24:13.520Z,40
2017-07-18T04:24:54.097Z,40
2017-07-18T04:25:34.722Z,45
2017-07-18T04:26:15.294Z,45
2017-07-18T04:26:55.884Z,45
2017-07-18T04:27:36.447Z,45
2017-07-18T04:28:17.034Z,45
2017-07-18T04:28:57.624Z,45
2017-07-18T04:29:38.195Z,45
2017-07-18T04:30:18.774Z,45
2017-07-18T04:30:59.365Z,45
2017-07-18T04:31:39.922Z,45
2017-07-18T04:32:20.486Z,50
2017-07-18T04:33:01.072Z,50
2017-07-18T04:33:41.693Z,50
2017-07-18T04:34:22.290Z,50
2017-07-18T04:35:02.878Z,50
2017-07-18T04:35:43.451Z,50
2017-07-18T04:36:24.033Z,50
2017-07-18T04:37:04.611Z,50
2017-07-18T04:37:45.242Z,50
2017-07-18T04:38:25.851Z,50
2017-07-18T04:39:06.442Z,55
2017-07-18T04:39:47.049Z,55
2017-07-18T04:40:27.649Z,55
2017-07-18T04:41:08.260Z,55
2017-07-18T04:41:48.851Z,55
2017-07-18T04:42:29.430Z,55
2017-07-18T04:43:10.017Z,55
2017-07-18T04:43:50.584Z,55
2017-07-18T04:44:31.164Z,55
2017-07-18T04:45:11.755Z,55
2017-07-18T04:45:52.435Z,60
2017-07-18T04:46:33.041Z,60
2017-07-18T04:47:13.660Z,60
2017-07-18T04:47:54.255Z,60
2017-07-18T04:48:34.828Z,60
2017-07-18T04:49:15.392Z,60
2017-07-18T04:49:55.982Z,60
2017-07-18T04:50:36.567Z,60
2017-07-18T04:51:17.149Z,60
2017-07-18T04:51:57.740Z,65
2017-07-18T04:52:38.303Z,65
2017-07-18T04:53:18.891Z,65
2017-07-18T04:53:59.446Z,65
2017-07-18T04:54:40.047Z,65
2017-07-18T04:55:20.626Z,65
2017-07-18T04:56:01.206Z,65
2017-07-18T04:56:41.785Z,65
2017-07-18T04:57:22.362Z,65
2017-07-18T04:58:02.970Z,70
2017-07-18T04:58:43.593Z,70
2017-07-18T04:59:25.011Z,70
2017-07-18T05:00:05.609Z,70
2017-07-18T05:00:46.175Z,70
2017-07-18T05:01:26.753Z,70
2017-07-18T05:02:07.342Z,70
2017-07-18T05:02:47.926Z,75
2017-07-18T05:03:28.512Z,75
2017-07-18T05:04:09.091Z,75
2017-07-18T05:04:49.701Z,75
2017-07-18T05:05:30.259Z,75
2017-07-18T05:06:10.881Z,75
2017-07-18T05:06:51.452Z,80
2017-07-18T05:07:32.026Z,80
2017-07-18T05:08:12.630Z,80
2017-07-18T05:08:53.266Z,80
2017-07-18T05:09:33.777Z,80
2017-07-18T05:10:14.356Z,80
2017-07-18T05:10:54.950Z,80
2017-07-18T05:11:35.532Z,85
2017-07-18T05:12:16.139Z,85
2017-07-18T05:12:56.695Z,85
2017-07-18T05:13:37.295Z,85
2017-07-18T05:14:17.898Z,85
2017-07-18T05:14:58.482Z,85
2017-07-18T05:15:39.088Z,90
2017-07-18T05:16:19.656Z,90
2017-07-18T05:17:00.270Z,90
2017-07-18T05:17:40.857Z,90
2017-07-18T05:18:21.443Z,95
2017-07-18T05:19:02.009Z,95
2017-07-18T05:19:42.593Z,95
2017-07-18T05:20:23.197Z,95
2017-07-18T05:21:03.781Z,95
2017-07-18T05:21:44.371Z,95
2017-07-18T05:22:24.959Z,95
2017-07-18T05:23:05.557Z,100
2017-07-18T05:23:46.139Z,100
2017-07-18T05:24:26.712Z,100
2017-07-18T05:25:07.283Z,100
2017-07-18T05:25:47.893Z,100
2017-07-18T05:26:28.489Z,100
2017-07-18T05:27:09.095Z,100
2017-07-18T05:27:49.693Z,100
2017-07-18T05:28:30.310Z,100
2017-07-18T05:29:10.900Z,105
2017-07-18T05:29:51.509Z,105
2017-07-18T05:30:32.099Z,105
2017-07-18T05:31:12.703Z,110
2017-07-18T05:31:53.278Z,110
2017-07-18T05:32:33.859Z,115
2017-07-18T05:33:14.435Z,115
2017-07-18T05:33:55.043Z,120
2017-07-18T05:34:35.622Z,120
2017-07-18T05:35:16.202Z,120
2017-07-18T05:35:56.779Z,305
2017-07-18T05:36:37.409Z,785
2017-07-18T05:37:17.959Z,1285
2017-07-18T05:37:58.527Z,1530
2017-07-18T05:38:39.118Z,1555
2017-07-18T05:39:19.778Z,1535
2017-07-18T05:40:00.362Z,1520
2017-07-18T05:40:40.994Z,1530
2017-07-18T05:41:21.574Z,1625
2017-07-18T05:42:02.152Z,1605
2017-07-18T05:42:42.733Z,1565
2017-07-18T05:43:23.341Z,1580
2017-07-18T05:44:03.907Z,1645
2017-07-18T05:44:44.485Z,1640
2017-07-18T05:45:25.088Z,1630
2017-07-18T05:46:05.701Z,1660
2017-07-18T05:46:46.266Z,1655
2017-07-18T05:47:26.842Z,1640
2017-07-18T05:48:07.440Z,1650
2017-07-18T05:48:48.738Z,1675
2017-07-18T05:49:29.622Z,1700
2017-07-18T05:50:10.427Z,1705
2017-07-18T05:50:51.532Z,1670
2017-07-18T05:51:32.491Z,1625
2017-07-18T05:52:13.099Z,1705
2017-07-18T05:52:53.653Z,1720
2017-07-18T05:53:34.245Z,1680
2017-07-18T05:54:14.864Z,1625
2017-07-18T05:54:55.463Z,1580
2017-07-18T05:55:36.081Z,1625
2017-07-18T05:56:16.843Z,1655
2017-07-18T05:56:57.435Z,1630
2017-07-18T05:57:38.031Z,1650
2017-07-18T05:58:19.381Z,1655
2017-07-18T05:58:59.971Z,1650
2017-07-18T05:59:40.543Z,1595
2017-07-18T06:00:21.153Z,1610
2017-07-18T06:01:01.768Z,1670
2017-07-18T06:01:42.485Z,1695
2017-07-18T06:02:23.061Z,1715
2017-07-18T06:03:03.670Z,1735
2017-07-18T06:03:44.402Z,1765
2017-07-18T06:04:24.995Z,1730
2017-07-18T06:05:05.575Z,1705
2017-07-18T06:05:46.433Z,1725
2017-07-18T06:06:27.044Z,1730
2017-07-18T06:07:08.137Z,1785
2017-07-18T06:07:48.812Z,1750
2017-07-18T06:08:29.403Z,1650
2017-07-18T06:09:10.091Z,1580
2017-07-18T06:09:50.735Z,1620
2017-07-18T06:10:31.338Z,1600
2017-07-18T06:11:11.958Z,1550
2017-07-18T06:11:52.542Z,1480
2017-07-18T06:12:33.260Z,1580
2017-07-18T06:13:13.957Z,1725
2017-07-18T06:13:54.567Z,1815
2017-07-18T06:14:35.158Z,1735
2017-07-18T06:15:15.764Z,1705
2017-07-18T06:15:56.365Z,1735
2017-07-18T06:16:36.951Z,1810
2017-07-18T06:17:17.530Z,1785
2017-07-18T06:17:58.519Z,1735
2017-07-18T06:18:39.045Z,1770
2017-07-18T06:19:20.027Z,1790
2017-07-18T06:20:00.937Z,1800
2017-07-18T06:20:41.588Z,1855
2017-07-18T06:21:22.255Z,1835
2017-07-18T06:22:02.986Z,1840
2017-07-18T06:22:43.610Z,1820
2017-07-18T06:23:24.187Z,1770
2017-07-18T06:24:04.802Z,1800
2017-07-18T06:24:45.474Z,1850
2017-07-18T06:25:26.149Z,1800
2017-07-18T06:26:06.762Z,1735
2017-07-18T06:26:47.445Z,1735
2017-07-18T06:27:28.433Z,1840
2017-07-18T06:28:09.021Z,1835
2017-07-18T06:28:49.641Z,1870
2017-07-18T06:29:30.211Z,1865
2017-07-18T06:30:10.785Z,1865
2017-07-18T06:30:51.370Z,1870
2017-07-18T06:31:31.962Z,1815
2017-07-18T06:32:12.557Z,1785
2017-07-18T06:32:53.131Z,1795
2017-07-18T06:33:33.714Z,1805
2017-07-18T06:34:14.293Z,1800
2017-07-18T06:34:54.901Z,1795
2017-07-18T06:35:35.493Z,1765
2017-07-18T06:36:16.090Z,1765
2017-07-18T06:36:56.683Z,1775
2017-07-18T06:37:37.272Z,1755
2017-07-18T06:38:17.842Z,1765
2017-07-18T06:38:58.455Z,1800
2017-07-18T06:39:39.047Z,1825
2017-07-18T06:40:19.642Z,1835
2017-07-18T06:41:00.287Z,1840
2017-07-18T06:41:40.909Z,1815
2017-07-18T06:42:21.509Z,1795
2017-07-18T06:43:02.141Z,1815
2017-07-18T06:43:42.721Z,1815
2017-07-18T06:44:23.325Z,1820
2017-07-18T06:45:03.932Z,1770
2017-07-18T06:45:44.518Z,1770
2017-07-18T06:46:25.130Z,1815
2017-07-18T06:47:05.711Z,1880
2017-07-18T06:47:46.301Z,1925
2017-07-18T06:48:27.206Z,1840
2017-07-18T06:49:07.812Z,1815
2017-07-18T06:49:48.435Z,1810
2017-07-18T06:50:29.015Z,1865
2017-07-18T06:51:09.606Z,1890
2017-07-18T06:51:50.203Z,1815
2017-07-18T06:52:30.840Z,1855
2017-07-18T06:53:11.468Z,1875
2017-07-18T06:53:52.094Z,1890
2017-07-18T06:54:32.692Z,1910
2017-07-18T06:55:13.272Z,1875
2017-07-18T06:55:53.852Z,1850
2017-07-18T06:56:34.450Z,1830
2017-07-18T06:57:15.020Z,1845
2017-07-18T06:57:55.637Z,1890
2017-07-18T06:58:36.232Z,1925
2017-07-18T06:59:16.937Z,1910
2017-07-18T06:59:57.539Z,1850
2017-07-18T07:00:38.188Z,1810
2017-07-18T07:01:18.775Z,1835
2017-07-18T07:01:59.376Z,1880
2017-07-18T07:02:39.969Z,1955
2017-07-18T07:03:20.567Z,1920
2017-07-18T07:04:01.166Z,1915
2017-07-18T07:04:41.789Z,1865
2017-07-18T07:05:22.369Z,1805
2017-07-18T07:06:02.999Z,1885
2017-07-18T07:06:43.593Z,1930
2017-07-18T07:07:24.175Z,1895
2017-07-18T07:08:04.805Z,1900
2017-07-18T07:08:45.384Z,1895
2017-07-18T07:09:26.031Z,1840
2017-07-18T07:10:06.579Z,1795
2017-07-18T07:10:47.158Z,1765
2017-07-18T07:11:27.768Z,1730
2017-07-18T07:12:08.374Z,1665
2017-07-18T07:12:48.996Z,1615
2017-07-18T07:13:29.583Z,1565
2017-07-18T07:14:10.179Z,1490
2017-07-18T07:14:50.762Z,1360
2017-07-18T07:15:31.438Z,1250
2017-07-18T07:16:12.031Z,1165
2017-07-18T07:16:52.660Z,1100
2017-07-18T07:17:33.234Z,1030
2017-07-18T07:18:13.823Z,965
2017-07-18T07:18:54.409Z,910
2017-07-18T07:19:35.008Z,865
2017-07-18T07:20:15.627Z,800
2017-07-18T07:20:56.207Z,755
2017-07-18T07:21:36.819Z,725
2017-07-18T07:22:17.431Z,705
2017-07-18T07:22:58.057Z,685
2017-07-18T07:23:38.620Z,655
2017-07-18T07:24:19.203Z,630
2017-07-18T07:24:59.838Z,610
2017-07-18T07:25:40.450Z,600
2017-07-18T07:26:21.046Z,590
2017-07-18T07:27:01.665Z,580
2017-07-18T07:27:42.245Z,570
2017-07-18T07:28:22.863Z,575
2017-07-18T07:29:03.529Z,565
2017-07-18T07:29:44.110Z,565
2017-07-18T07:30:24.703Z,560
2017-07-18T07:31:05.313Z,560
2017-07-18T07:31:45.904Z,565
2017-07-18T07:32:26.506Z,565
2017-07-18T07:33:07.095Z,565
2017-07-18T07:33:47.681Z,565
2017-07-18T07:34:28.267Z,565
2017-07-18T07:35:08.886Z,550
2017-07-18T07:35:49.517Z,510
2017-07-18T07:36:30.065Z,500
2017-07-18T07:37:10.644Z,520
2017-07-18T07:37:51.433Z,505
2017-07-18T07:38:32.011Z,565
2017-07-18T07:39:12.684Z,530
2017-07-18T07:39:53.298Z,520
2017-07-18T07:40:33.920Z,470
2017-07-18T07:41:14.469Z,450
2017-07-18T07:41:55.042Z,365
2017-07-18T07:42:35.674Z,335
2017-07-18T07:43:16.250Z,335
2017-07-18T07:43:56.839Z,340
2017-07-18T07:44:37.425Z,330
2017-07-18T07:45:18.013Z,385
2017-07-18T07:45:58.606Z,410
2017-07-18T07:46:39.189Z,365
2017-07-18T07:47:19.791Z,380
2017-07-18T07:48:00.371Z,355
2017-07-18T07:48:40.985Z,465
2017-07-18T07:49:21.560Z,440
2017-07-18T07:50:02.130Z,520
2017-07-18T07:50:42.711Z,600
2017-07-18T07:51:23.308Z,605
2017-07-18T07:52:03.890Z,605
2017-07-18T07:52:44.470Z,595
2017-07-18T07:53:25.045Z,595
2017-07-18T07:54:05.670Z,600
2017-07-18T07:54:46.240Z,610
2017-07-18T07:55:26.829Z,615
2017-07-18T07:56:07.410Z,615
2017-07-18T07:56:48.012Z,630
2017-07-18T07:57:28.592Z,635
2017-07-18T07:58:09.169Z,640
2017-07-18T07:58:49.768Z,645
2017-07-18T07:59:30.373Z,640
2017-07-18T08:00:10.949Z,650
2017-07-18T08:00:51.576Z,595
2017-07-18T08:01:32.158Z,630
2017-07-18T08:02:12.765Z,565
2017-07-18T08:02:53.356Z,560
2017-07-18T08:03:33.947Z,495
2017-07-18T08:04:14.526Z,560
2017-07-18T08:04:55.117Z,565
2017-07-18T08:05:35.723Z,545
2017-07-18T08:06:16.338Z,530
2017-07-18T08:06:56.926Z,500
2017-07-18T08:07:37.524Z,475
2017-07-18T08:08:18.090Z,475
2017-07-18T08:08:58.679Z,455
2017-07-18T08:09:39.308Z,445
2017-07-18T08:10:19.887Z,445
2017-07-18T08:11:00.475Z,430
2017-07-18T08:11:41.068Z,425
2017-07-18T08:12:24.905Z,420
2017-07-18T08:13:05.490Z,410
2017-07-18T08:13:46.070Z,410
2017-07-18T08:14:26.669Z,405
2017-07-18T08:15:07.270Z,400
2017-07-18T08:15:47.875Z,390
2017-07-18T08:16:28.466Z,390
2017-07-18T08:17:09.061Z,385
2017-07-18T08:17:49.640Z,380
2017-07-18T08:18:30.233Z,380
2017-07-18T08:19:10.847Z,240
2017-07-18T08:19:51.459Z,355
2017-07-18T08:20:32.019Z,360
2017-07-18T08:21:12.625Z,355
2017-07-18T08:21:53.213Z,355
2017-07-18T08:22:33.782Z,355
2017-07-18T08:23:20.901Z,345
2017-07-18T08:24:01.500Z,355
2017-07-18T08:24:42.109Z,350
2017-07-18T08:25:22.720Z,230
2017-07-18T08:26:03.361Z,190
2017-07-18T08:26:43.947Z,335
2017-07-18T08:27:24.522Z,320
2017-07-18T08:28:05.101Z,320
2017-07-18T08:28:45.685Z,330
2017-07-18T08:29:26.293Z,335
2017-07-18T08:30:06.863Z,335
2017-07-18T08:30:47.454Z,220
2017-07-18T08:31:28.076Z,305
2017-07-18T08:32:08.654Z,235
2017-07-18T08:32:49.230Z,260
2017-07-18T08:33:29.802Z,220
2017-07-18T08:34:10.466Z,215
2017-07-18T08:34:51.032Z,200
2017-07-18T08:35:31.639Z,195
2017-07-18T08:36:12.264Z,190
2017-07-18T08:36:52.883Z,280
2017-07-18T08:37:33.488Z,195
2017-07-18T08:38:14.078Z,205
2017-07-18T08:38:54.669Z,195
2017-07-18T08:39:35.250Z,200
2017-07-18T08:40:15.827Z,290
2017-07-18T08:40:56.426Z,290
2017-07-18T08:41:37.002Z,250
2017-07-18T08:42:17.764Z,220
2017-07-18T08:42:58.379Z,250
2017-07-18T08:43:38.966Z,210
2017-07-18T08:44:19.552Z,215
2017-07-18T08:45:00.143Z,205
2017-07-18T08:45:40.741Z,195
2017-07-18T08:46:21.332Z,195
2017-07-18T08:47:01.919Z,230
2017-07-18T08:47:42.538Z,205
2017-07-18T08:48:23.125Z,220
2017-07-18T08:49:03.778Z,265
2017-07-18T08:49:44.353Z,285
2017-07-18T08:50:24.952Z,255
2017-07-18T08:51:05.525Z,200
2017-07-18T08:51:46.097Z,205
2017-07-18T08:52:26.667Z,190
2017-07-18T08:53:07.240Z,185
2017-07-18T08:53:47.804Z,175
2017-07-18T08:54:28.375Z,180
2017-07-18T08:55:08.968Z,180
2017-07-18T08:55:49.569Z,205
2017-07-18T08:56:30.149Z,200
2017-07-18T08:57:10.783Z,200
2017-07-18T08:57:51.375Z,215
2017-07-18T08:58:31.948Z,250
2017-07-18T08:59:12.528Z,250
2017-07-18T08:59:53.109Z,255
2017-07-18T09:00:33.681Z,255
2017-07-18T09:01:14.277Z,240
2017-07-18T09:01:54.901Z,235
2017-07-18T09:02:35.488Z,225
2017-07-18T09:03:16.105Z,225
2017-07-18T09:03:56.781Z,250
2017-07-18T09:04:37.352Z,255
2017-07-18T09:05:17.969Z,255
2017-07-18T09:05:58.554Z,255
2017-07-18T09:06:39.126Z,245
2017-07-18T09:07:19.706Z,245
2017-07-18T09:08:00.356Z,240
2017-07-18T09:08:40.943Z,240
2017-07-18T09:09:21.531Z,240
2017-07-18T09:10:02.176Z,235
2017-07-18T09:10:42.764Z,240
2017-07-18T09:11:23.353Z,240
2017-07-18T09:12:03.920Z,235
2017-07-18T09:12:44.746Z,230
2017-07-18T09:13:25.329Z,225
2017-07-18T09:14:05.981Z,220
2017-07-18T09:14:46.574Z,220
2017-07-18T09:15:27.156Z,215
2017-07-18T09:16:07.748Z,185
2017-07-18T09:16:48.343Z,175
2017-07-18T09:17:28.912Z,170
2017-07-18T09:18:09.501Z,170
2017-07-18T09:18:50.103Z,170
2017-07-18T09:19:30.679Z,170
2017-07-18T09:20:11.302Z,170
2017-07-18T09:20:51.909Z,190
2017-07-18T09:21:32.481Z,205
2017-07-18T09:22:13.064Z,205
2017-07-18T09:22:53.657Z,205
2017-07-18T09:23:34.256Z,200
2017-07-18T09:24:14.891Z,200
2017-07-18T09:24:55.476Z,195
2017-07-18T09:25:36.124Z,195
2017-07-18T09:26:16.682Z,190
2017-07-18T09:26:57.295Z,190
2017-07-18T09:27:37.867Z,190
2017-07-18T09:28:18.462Z,190
2017-07-18T09:28:59.050Z,195
2017-07-18T09:29:39.652Z,195
2017-07-18T09:30:20.235Z,190
2017-07-18T09:31:00.799Z,200
2017-07-18T09:31:41.397Z,200
2017-07-18T09:32:22.293Z,200
2017-07-18T09:33:02.888Z,200
2017-07-18T09:33:43.582Z,200